Time;durP1;ratioP1;P1;durP2;ratioP2;P2;SDS_P1;SDS_P2;PMS_P1;PMS_P2;Temp;Humidity;BMP_temperature;BMP_pressure;BME280_temperature;BME280_humidity;BME280_pressure;Samples;Min_cycle;Max_cycle;Signal;HPM_P1;HPM_P2
2022/06/05 00:00:22;;;;;;;4.30;3.97;;;21.30;66.90;;;;;;4949157;28;20097;-68
2022/06/05 00:03:22;;;;;;;4.68;4.28;;;21.20;67.60;;;;;;4949127;28;20125;-68
2022/06/05 00:05:54;;;;;;;6.75;3.92;;;21.20;67.60;;;;;;4954141;28;20035;-68
2022/06/05 00:08:42;;;;;;;5.07;4.68;;;21.20;67.40;;;;;;4949622;28;20065;-68
2022/06/05 00:11:11;;;;;;;5.38;4.78;;;21.20;67.10;;;;;;4939847;28;20043;-69
2022/06/05 00:13:43;;;;;;;5.22;4.70;;;21.10;67.40;;;;;;4953020;28;20051;-68
2022/06/05 00:16:10;;;;;;;5.03;4.57;;;21.10;67.40;;;;;;4955331;28;20034;-67
2022/06/05 00:18:38;;;;;;;6.35;4.68;;;21.10;67.40;;;;;;4950957;28;20046;-68
2022/06/05 00:21:06;;;;;;;5.07;4.68;;;21.10;67.80;;;;;;4950950;28;20035;-68
2022/06/05 00:23:31;;;;;;;5.10;4.60;;;21.00;67.70;;;;;;4949928;28;20055;-68
2022/06/05 00:26:03;;;;;;;5.32;4.88;;;21.00;67.80;;;;;;4948877;28;20121;-68
2022/06/05 00:28:38;;;;;;;5.38;4.88;;;21.00;68.00;;;;;;4950704;28;20035;-68
2022/06/05 00:31:14;;;;;;;5.03;4.63;;;21.00;68.50;;;;;;4952070;28;20082;-68
2022/06/05 00:33:41;;;;;;;5.47;4.97;;;21.00;68.50;;;;;;4952268;28;20039;-68
2022/06/05 00:36:24;;;;;;;8.60;5.43;;;20.90;68.20;;;;;;4948713;28;20037;-69
2022/06/05 00:39:09;;;;;;;5.53;5.03;;;20.90;69.10;;;;;;4949550;28;20034;-68
2022/06/05 00:41:52;;;;;;;5.80;5.30;;;20.90;69.20;;;;;;4949835;28;20045;-68
2022/06/05 00:44:23;;;;;;;5.63;5.13;;;20.80;68.90;;;;;;4947096;28;20287;-68
2022/06/05 00:46:50;;;;;;;6.78;5.50;;;20.80;68.80;;;;;;4953690;28;20504;-69
2022/06/05 00:49:17;;;;;;;6.90;5.57;;;20.70;68.60;;;;;;4950097;28;20031;-68
2022/06/05 00:51:43;;;;;;;7.78;5.50;;;20.70;68.80;;;;;;4947857;28;20406;-68
2022/06/05 00:54:09;;;;;;;6.15;5.55;;;20.70;69.10;;;;;;4950018;28;20066;-68
2022/06/05 00:56:36;;;;;;;6.35;5.75;;;20.70;69.30;;;;;;4949106;28;20410;-68
2022/06/05 00:59:02;;;;;;;6.40;5.80;;;20.60;69.30;;;;;;4951097;28;20101;-68
2022/06/05 01:01:28;;;;;;;7.03;6.25;;;20.60;69.90;;;;;;4953049;28;20043;-68
2022/06/05 01:04:00;;;;;;;7.15;6.50;;;20.50;70.00;;;;;;4951305;28;20126;-68
2022/06/05 01:06:26;;;;;;;6.95;6.18;;;20.50;70.30;;;;;;4954113;28;20034;-68
2022/06/05 01:08:52;;;;;;;7.65;6.95;;;20.40;70.40;;;;;;4950009;28;20034;-66
2022/06/05 01:11:38;;;;;;;8.02;7.25;;;20.40;70.80;;;;;;4948168;28;20035;-68
2022/06/05 01:14:30;;;;;;;8.13;6.50;;;20.30;71.30;;;;;;4956274;28;20077;-66
2022/06/05 01:17:03;;;;;;;7.03;6.43;;;20.30;71.50;;;;;;4951134;28;20386;-68
2022/06/05 01:19:44;;;;;;;7.20;6.60;;;20.30;71.50;;;;;;4950110;28;20065;-68
2022/06/05 01:22:50;;;;;;;7.32;6.55;;;20.20;72.00;;;;;;4952234;28;20038;-68
2022/06/05 01:25:44;;;;;;;9.13;7.38;;;20.20;72.30;;;;;;4946057;28;22201;-69
2022/06/05 01:28:17;;;;;;;7.93;7.13;;;20.20;72.50;;;;;;4947516;28;20474;-68
2022/06/05 01:30:51;;;;;;;8.52;7.72;;;20.20;71.80;;;;;;4949961;28;20089;-68
2022/06/05 01:33:27;;;;;;;8.15;7.35;;;20.10;72.30;;;;;;4951572;28;20123;-69
2022/06/05 01:36:03;;;;;;;7.97;7.28;;;20.10;72.70;;;;;;4952325;28;20406;-68
2022/06/05 01:38:54;;;;;;;7.97;7.18;;;20.10;72.00;;;;;;4952708;28;20035;-67
2022/06/05 01:41:27;;;;;;;8.18;6.85;;;20.00;72.60;;;;;;4951047;28;20074;-68
2022/06/05 01:43:58;;;;;;;8.10;7.38;;;20.00;72.90;;;;;;4949245;28;20070;-68
2022/06/05 01:46:34;;;;;;;8.05;7.30;;;20.00;72.70;;;;;;4953739;28;20509;-68
2022/06/05 01:49:11;;;;;;;8.15;7.40;;;19.90;73.10;;;;;;4951440;28;20692;-68
2022/06/05 01:51:56;;;;;;;7.65;6.95;;;19.90;73.20;;;;;;4954710;28;20042;-68
2022/06/05 01:54:46;;;;;;;7.82;7.22;;;19.90;73.90;;;;;;4950852;28;20118;-68
2022/06/05 01:57:14;;;;;;;8.02;7.22;;;19.90;73.70;;;;;;4953569;28;20077;-68
2022/06/05 01:59:51;;;;;;;8.32;7.63;;;19.90;73.40;;;;;;4955514;28;20046;-68
2022/06/05 02:02:24;;;;;;;8.32;7.47;;;19.90;74.40;;;;;;4953445;28;20082;-67
2022/06/05 02:04:55;;;;;;;8.00;7.20;;;19.90;74.00;;;;;;4955044;28;22581;-69
2022/06/05 02:07:33;;;;;;;8.63;7.80;;;19.90;74.00;;;;;;4955217;28;20039;-68
2022/06/05 02:10:14;;;;;;;8.73;7.82;;;19.80;74.60;;;;;;4955077;28;20043;-68
2022/06/05 02:12:40;;;;;;;8.88;7.35;;;19.80;74.70;;;;;;4949180;28;20064;-68
2022/06/05 02:15:06;;;;;;;9.32;8.30;;;19.80;74.10;;;;;;4954227;28;20499;-69
2022/06/05 02:17:33;;;;;;;9.48;8.57;;;19.80;74.20;;;;;;4953599;28;20038;-68
2022/06/05 02:19:59;;;;;;;9.40;8.25;;;19.80;74.60;;;;;;4956035;28;20039;-68
2022/06/05 02:22:29;;;;;;;8.80;7.97;;;19.70;74.70;;;;;;4953990;28;20026;-67
2022/06/05 02:24:56;;;;;;;9.80;8.80;;;19.70;75.10;;;;;;4953930;28;20205;-68
2022/06/05 02:27:23;;;;;;;9.93;8.35;;;19.70;75.10;;;;;;4953306;28;20058;-68
2022/06/05 02:29:50;;;;;;;8.95;8.13;;;19.70;75.30;;;;;;4953102;28;20046;-68
2022/06/05 02:32:46;;;;;;;9.52;8.63;;;19.60;75.40;;;;;;4953779;28;20116;-66
2022/06/05 02:35:20;;;;;;;8.90;7.93;;;19.60;76.80;;;;;;4950446;28;20028;-68
2022/06/05 02:37:46;;;;;;;8.50;7.75;;;19.60;76.10;;;;;;4952814;28;20129;-68
2022/06/05 02:40:11;;;;;;;9.32;8.20;;;19.60;75.50;;;;;;4951590;28;20491;-68
2022/06/05 02:43:21;;;;;;;9.60;7.95;;;19.60;75.70;;;;;;4950432;28;20615;-66
2022/06/05 02:45:58;;;;;;;9.50;8.15;;;19.60;76.60;;;;;;4920062;28;20043;-68
2022/06/05 02:48:34;;;;;;;10.98;8.35;;;19.60;75.90;;;;;;4951317;28;20580;-67
2022/06/05 02:51:07;;;;;;;8.70;7.70;;;19.60;76.10;;;;;;4954900;28;20050;-68
2022/06/05 02:53:46;;;;;;;12.45;8.63;;;19.60;76.00;;;;;;4952766;28;20054;-68
2022/06/05 02:56:12;;;;;;;13.30;10.07;;;19.60;77.00;;;;;;4951064;28;20062;-67
2022/06/05 02:58:38;;;;;;;15.20;11.13;;;19.60;76.00;;;;;;4953980;28;20303;-68
2022/06/05 03:03:48;;;;;;;9.15;8.25;;;19.50;77.10;;;;;;4953655;28;20183;-68
2022/06/05 03:06:15;;;;;;;9.20;8.30;;;19.50;76.30;;;;;;4954962;28;20675;-68
2022/06/05 03:08:41;;;;;;;9.98;8.18;;;19.50;76.50;;;;;;4952135;28;20455;-68
2022/06/05 03:11:06;;;;;;;10.65;8.68;;;19.50;76.60;;;;;;4951767;28;20109;-67
2022/06/05 03:13:32;;;;;;;10.77;8.95;;;19.50;76.70;;;;;;4949137;28;20553;-68
2022/06/05 03:15:58;;;;;;;10.63;9.68;;;19.50;76.80;;;;;;4952218;28;20125;-68
2022/06/05 03:18:23;;;;;;;11.52;8.50;;;19.50;76.80;;;;;;4949602;28;20558;-67
2022/06/05 03:20:49;;;;;;;10.25;8.63;;;19.50;76.80;;;;;;4954348;28;20101;-68
2022/06/05 03:23:15;;;;;;;8.27;7.47;;;19.50;76.80;;;;;;4953636;28;20039;-68
2022/06/05 03:25:42;;;;;;;9.88;8.88;;;19.50;76.80;;;;;;4952131;28;20730;-68
2022/06/05 03:28:08;;;;;;;9.90;8.15;;;19.50;76.90;;;;;;4955362;28;20082;-67
2022/06/05 03:30:38;;;;;;;10.95;9.05;;;19.50;77.00;;;;;;4950691;28;20406;-68
2022/06/05 03:33:03;;;;;;;11.65;9.55;;;19.50;77.10;;;;;;4954436;28;20053;-68
2022/06/05 03:35:29;;;;;;;11.35;9.35;;;19.50;77.00;;;;;;4951384;28;20502;-68
2022/06/05 03:37:54;;;;;;;10.70;9.18;;;19.50;77.00;;;;;;4950894;28;20125;-68
2022/06/05 03:40:20;;;;;;;9.95;9.05;;;19.50;77.20;;;;;;4955635;28;20457;-68
2022/06/05 03:42:46;;;;;;;10.23;9.25;;;19.50;77.20;;;;;;4949655;28;20045;-68
2022/06/05 03:45:17;;;;;;;10.55;9.55;;;19.40;77.20;;;;;;4951602;28;20035;-68
2022/06/05 03:47:43;;;;;;;10.30;9.30;;;19.40;77.70;;;;;;4950049;28;20050;-68
2022/06/05 03:50:11;;;;;;;10.93;9.60;;;19.40;77.30;;;;;;4952157;28;20062;-66
2022/06/05 03:52:37;;;;;;;13.07;9.73;;;19.30;77.40;;;;;;4950630;28;20047;-68
2022/06/05 03:55:03;;;;;;;10.35;9.40;;;19.30;77.80;;;;;;4952697;28;20089;-68
2022/06/05 03:57:29;;;;;;;10.55;9.45;;;19.30;77.80;;;;;;4951953;28;20058;-68
2022/06/05 03:59:54;;;;;;;11.43;10.25;;;19.30;77.90;;;;;;4948769;28;21151;-68
2022/06/05 04:02:20;;;;;;;11.25;9.95;;;19.30;77.90;;;;;;4951501;28;20096;-69
2022/06/05 04:04:46;;;;;;;10.77;9.73;;;19.30;78.20;;;;;;4950701;28;20517;-68
2022/06/05 04:07:12;;;;;;;11.68;10.48;;;19.30;78.20;;;;;;4953799;28;20089;-68
2022/06/05 04:09:37;;;;;;;11.43;10.27;;;19.20;78.60;;;;;;4949930;28;20062;-68
2022/06/05 04:12:03;;;;;;;11.18;9.98;;;19.20;78.90;;;;;;4950299;28;20031;-68
2022/06/05 04:14:29;;;;;;;12.63;10.73;;;19.20;78.80;;;;;;4952033;28;20031;-68
2022/06/05 04:16:54;;;;;;;13.75;11.55;;;19.20;79.10;;;;;;4948602;28;20039;-68
2022/06/05 04:19:20;;;;;;;12.85;11.52;;;19.20;79.40;;;;;;4949710;28;20466;-68
2022/06/05 04:21:47;;;;;;;11.40;10.27;;;19.10;79.60;;;;;;4951843;28;20039;-68
2022/06/05 04:24:13;;;;;;;12.10;10.70;;;19.10;79.40;;;;;;4950209;28;20514;-68
2022/06/05 04:26:40;;;;;;;12.20;11.00;;;19.10;79.60;;;;;;4949196;28;20050;-68
2022/06/05 04:29:06;;;;;;;14.18;10.85;;;19.10;80.00;;;;;;4949763;28;20061;-69
2022/06/05 04:31:33;;;;;;;12.13;10.93;;;19.10;80.00;;;;;;4952070;28;20426;-67
2022/06/05 04:34:01;;;;;;;12.40;10.48;;;19.10;80.30;;;;;;4950078;28;20256;-68
2022/06/05 04:36:27;;;;;;;11.52;10.43;;;19.00;80.10;;;;;;4950534;28;20415;-68
2022/06/05 04:38:53;;;;;;;12.02;10.73;;;19.00;80.30;;;;;;4948896;28;20461;-69
2022/06/05 04:41:19;;;;;;;12.02;10.93;;;19.00;80.30;;;;;;4947232;28;20039;-68
2022/06/05 04:43:45;;;;;;;12.20;11.10;;;19.10;80.40;;;;;;4950398;28;20035;-68
2022/06/05 04:46:11;;;;;;;12.05;10.95;;;19.10;80.50;;;;;;4950692;28;20520;-68
2022/06/05 04:48:37;;;;;;;12.23;11.02;;;19.10;80.60;;;;;;4950963;28;20047;-67
2022/06/05 04:51:05;;;;;;;12.25;11.13;;;19.10;80.60;;;;;;4950351;28;20035;-68
2022/06/05 04:53:30;;;;;;;12.25;11.00;;;19.10;80.90;;;;;;4950526;28;21329;-68
2022/06/05 04:55:56;;;;;;;13.10;11.80;;;19.10;80.80;;;;;;4950662;28;20955;-68
2022/06/05 04:58:22;;;;;;;12.13;10.88;;;19.10;81.10;;;;;;4952761;28;20630;-68
2022/06/05 05:00:47;;;;;;;11.85;10.73;;;19.10;81.10;;;;;;4949254;28;20065;-68
2022/06/05 05:03:13;;;;;;;11.85;10.70;;;19.10;81.00;;;;;;4948916;28;20178;-67
2022/06/05 05:05:38;;;;;;;13.75;11.15;;;19.10;80.90;;;;;;4950019;28;20279;-68
2022/06/05 05:08:04;;;;;;;11.77;10.18;;;19.10;81.00;;;;;;4951153;28;20121;-67
2022/06/05 05:10:30;;;;;;;11.27;10.18;;;19.10;81.00;;;;;;4951969;28;20412;-68
2022/06/05 05:12:55;;;;;;;10.73;9.68;;;19.10;81.00;;;;;;4950023;28;20061;-68
2022/06/05 05:15:21;;;;;;;12.13;9.80;;;19.10;81.00;;;;;;4952172;28;20125;-68
2022/06/05 05:17:47;;;;;;;10.65;9.65;;;19.10;81.10;;;;;;4949873;28;20039;-68
2022/06/05 05:20:13;;;;;;;11.00;9.90;;;19.20;81.20;;;;;;4950048;28;20066;-67
2022/06/05 05:22:39;;;;;;;11.38;10.27;;;19.20;81.20;;;;;;4952099;28;20495;-67
2022/06/05 05:25:07;;;;;;;10.20;9.20;;;19.20;81.50;;;;;;4950622;28;20041;-68
2022/06/05 05:27:35;;;;;;;11.35;10.25;;;19.20;81.50;;;;;;4953971;28;20027;-68
2022/06/05 05:30:02;;;;;;;14.27;10.88;;;19.30;82.60;;;;;;4954159;28;20505;-67
2022/06/05 05:32:28;;;;;;;13.10;11.02;;;19.30;81.70;;;;;;4953048;28;20043;-68
2022/06/05 05:34:54;;;;;;;19.42;10.07;;;19.30;82.20;;;;;;4946884;28;20043;-68
2022/06/05 05:37:19;;;;;;;14.52;8.05;;;19.20;83.10;;;;;;4951142;28;20092;-66
2022/06/05 05:42:32;;;;;;;8.88;7.20;;;19.20;84.10;;;;;;4944320;28;20861;-67
2022/06/05 05:44:59;;;;;;;8.38;6.25;;;19.20;83.90;;;;;;4951718;28;20211;-67
2022/06/05 05:47:28;;;;;;;7.45;5.25;;;19.20;83.80;;;;;;4954630;28;20683;-67
2022/06/05 05:50:05;;;;;;;9.10;4.30;;;19.20;83.70;;;;;;4952378;28;20062;-67
2022/06/05 05:52:31;;;;;;;7.30;4.05;;;19.20;83.50;;;;;;4952328;28;20039;-66
2022/06/05 05:54:57;;;;;;;4.15;2.78;;;19.20;83.10;;;;;;4954519;28;20035;-67
2022/06/05 05:57:24;;;;;;;4.78;2.10;;;19.10;82.40;;;;;;4950847;28;20039;-67
2022/06/05 05:59:50;;;;;;;4.53;2.15;;;19.10;81.90;;;;;;4954294;28;20688;-68
2022/06/05 06:02:21;;;;;;;2.33;1.65;;;19.10;81.90;;;;;;4952272;28;20031;-68
2022/06/05 06:04:48;;;;;;;3.97;1.65;;;19.00;81.90;;;;;;4951109;28;20039;-68
2022/06/05 06:07:14;;;;;;;2.35;1.27;;;19.00;81.80;;;;;;4956910;28;20054;-68
2022/06/05 06:09:41;;;;;;;2.88;1.50;;;19.00;81.70;;;;;;4958519;28;20179;-68
2022/06/05 06:12:07;;;;;;;5.78;1.73;;;19.00;81.30;;;;;;4953891;28;20051;-68
2022/06/05 06:14:33;;;;;;;2.90;1.20;;;19.00;81.60;;;;;;4956240;28;20039;-67
2022/06/05 06:16:59;;;;;;;3.75;1.88;;;18.90;81.30;;;;;;4954407;28;20027;-68
2022/06/05 06:19:25;;;;;;;2.20;1.30;;;18.80;81.30;;;;;;4952514;28;20039;-68
2022/06/05 06:21:51;;;;;;;3.80;1.48;;;18.80;81.30;;;;;;4948687;28;21643;-69
2022/06/05 06:24:17;;;;;;;3.85;1.73;;;18.80;81.80;;;;;;4949858;28;20035;-69
2022/06/05 06:26:42;;;;;;;4.30;1.92;;;18.80;82.00;;;;;;4951054;28;20046;-68
2022/06/05 06:29:09;;;;;;;4.78;1.95;;;18.80;82.00;;;;;;4947401;28;20028;-68
2022/06/05 06:31:38;;;;;;;2.38;1.70;;;18.80;82.10;;;;;;4950188;28;20121;-69
2022/06/05 06:34:04;;;;;;;3.72;1.50;;;18.80;82.30;;;;;;4949466;28;20039;-67
2022/06/05 06:36:30;;;;;;;2.00;1.50;;;18.80;82.40;;;;;;4948693;28;20045;-67
2022/06/05 06:38:56;;;;;;;3.95;1.60;;;18.80;82.40;;;;;;4948846;28;20149;-68
2022/06/05 06:41:21;;;;;;;3.97;1.48;;;18.80;82.60;;;;;;4950450;28;20045;-68
2022/06/05 06:43:48;;;;;;;3.90;1.70;;;18.80;83.00;;;;;;4952045;28;20465;-68
2022/06/05 06:46:15;;;;;;;5.10;1.83;;;18.90;83.00;;;;;;4950499;28;20031;-68
2022/06/05 06:48:41;;;;;;;4.45;1.80;;;18.90;82.90;;;;;;4946694;28;20042;-68
2022/06/05 06:51:09;;;;;;;4.63;1.88;;;18.90;82.60;;;;;;4950370;28;20331;-67
2022/06/05 06:53:36;;;;;;;3.53;1.83;;;19.00;82.90;;;;;;4947130;28;20442;-68
2022/06/05 06:56:13;;;;;;;3.28;1.60;;;19.00;82.70;;;;;;4952718;28;20502;-68
2022/06/05 06:58:40;;;;;;;2.53;1.70;;;19.00;83.30;;;;;;4947628;28;20042;-68
2022/06/05 07:01:06;;;;;;;2.28;1.88;;;19.10;83.10;;;;;;4947890;28;20475;-68
2022/06/05 07:03:33;;;;;;;2.25;1.92;;;19.10;83.80;;;;;;4946100;28;20062;-68
2022/06/05 07:06:00;;;;;;;3.55;2.20;;;19.10;82.70;;;;;;4951504;28;20146;-68
2022/06/05 07:08:26;;;;;;;2.90;1.95;;;19.20;82.60;;;;;;4950639;28;20031;-68
2022/06/05 07:10:52;;;;;;;2.83;2.05;;;19.20;82.70;;;;;;4951423;28;20039;-69
2022/06/05 07:13:18;;;;;;;2.58;1.90;;;19.20;82.70;;;;;;4951430;28;20073;-67
2022/06/05 07:15:43;;;;;;;4.57;1.48;;;19.20;82.70;;;;;;4950908;28;20030;-68
2022/06/05 07:18:09;;;;;;;1.67;1.50;;;19.30;82.70;;;;;;4954698;28;20384;-68
2022/06/05 07:20:40;;;;;;;2.83;1.65;;;19.30;82.70;;;;;;4954091;28;20031;-68
2022/06/05 07:23:07;;;;;;;2.35;1.40;;;19.40;83.10;;;;;;4955597;28;20041;-68
2022/06/05 07:25:33;;;;;;;1.60;1.50;;;19.50;83.10;;;;;;4956255;28;20039;-68
2022/06/05 07:27:59;;;;;;;2.08;1.60;;;19.50;83.80;;;;;;4956896;28;20058;-68
2022/06/05 07:30:25;;;;;;;1.75;1.45;;;19.60;83.00;;;;;;4953124;28;20031;-69
2022/06/05 07:32:51;;;;;;;1.80;1.52;;;19.70;83.20;;;;;;4954318;28;20605;-68
2022/06/05 07:35:17;;;;;;;2.03;1.60;;;19.80;83.10;;;;;;4953629;28;20035;-68
2022/06/05 07:37:43;;;;;;;2.05;1.88;;;19.80;83.20;;;;;;4953604;28;20797;-67
2022/06/05 07:40:10;;;;;;;2.90;1.60;;;19.90;83.50;;;;;;4951277;28;20043;-68
2022/06/05 07:42:37;;;;;;;1.65;1.50;;;20.00;84.00;;;;;;4950731;28;20039;-68
2022/06/05 07:45:04;;;;;;;3.22;1.60;;;20.10;83.70;;;;;;4948819;28;20183;-66
2022/06/05 07:47:30;;;;;;;2.05;1.40;;;20.20;83.40;;;;;;4953876;28;20054;-66
2022/06/05 07:49:56;;;;;;;2.60;1.60;;;20.30;83.10;;;;;;4954922;28;20031;-68
2022/06/05 07:55:06;;;;;;;2.73;1.40;;;20.60;82.80;;;;;;4952726;28;20082;-68
2022/06/05 07:57:32;;;;;;;1.60;1.30;;;20.70;82.40;;;;;;4950006;28;20275;-68
2022/06/05 07:59:57;;;;;;;1.70;1.20;;;20.80;82.40;;;;;;4955278;28;20062;-69
2022/06/05 08:02:26;;;;;;;2.22;1.17;;;20.90;82.20;;;;;;4951399;28;20125;-68
2022/06/05 08:04:53;;;;;;;2.17;1.70;;;21.00;81.70;;;;;;4954187;28;20602;-68
2022/06/05 08:07:21;;;;;;;2.00;1.35;;;21.10;80.90;;;;;;4950544;28;20028;-67
2022/06/05 08:09:48;;;;;;;1.90;1.23;;;21.20;80.50;;;;;;4953791;28;20073;-68
2022/06/05 08:12:16;;;;;;;1.65;1.50;;;21.30;80.50;;;;;;4954495;28;20086;-68
2022/06/05 08:14:44;;;;;;;3.38;1.50;;;21.40;80.10;;;;;;4951865;28;20581;-68
2022/06/05 08:17:12;;;;;;;2.65;1.55;;;21.50;80.10;;;;;;4953274;28;20053;-68
2022/06/05 08:19:39;;;;;;;2.08;1.20;;;21.60;79.80;;;;;;4951325;28;20066;-67
2022/06/05 08:22:06;;;;;;;1.92;1.25;;;21.70;79.50;;;;;;4953210;28;20513;-67
2022/06/05 08:24:32;;;;;;;1.38;1.27;;;21.80;78.90;;;;;;4952432;28;20054;-67
2022/06/05 08:26:57;;;;;;;1.45;1.35;;;21.90;78.70;;;;;;5007841;23;20415;-70
2022/06/05 08:29:23;;;;;;;3.05;1.40;;;22.00;78.40;;;;;;4951556;28;20407;-71
2022/06/05 08:31:49;;;;;;;1.23;1.13;;;22.10;78.10;;;;;;4991378;23;20066;-70
2022/06/05 08:34:14;;;;;;;1.30;1.20;;;22.20;77.60;;;;;;4949728;28;20088;-70
2022/06/05 08:36:41;;;;;;;2.17;1.35;;;22.30;77.00;;;;;;5024398;23;20476;-70
2022/06/05 08:42:17;;;;;;;1.15;1.10;;;22.40;76.80;;;;;;5042376;23;20107;-66
2022/06/05 08:44:45;;;;;;;1.30;1.20;;;22.50;75.40;;;;;;5014666;23;20050;-68
2022/06/05 08:47:26;;;;;;;1.00;0.90;;;22.50;75.40;;;;;;4957872;28;20086;-67
2022/06/05 08:49:58;;;;;;;1.77;1.00;;;22.60;76.00;;;;;;4961466;28;20674;-69
2022/06/05 08:52:36;;;;;;;1.25;0.88;;;22.70;75.80;;;;;;4960884;28;20034;-69
2022/06/05 08:55:09;;;;;;;0.90;0.90;;;22.80;75.00;;;;;;4963028;28;20158;-69
2022/06/05 08:57:39;;;;;;;1.63;0.93;;;22.90;75.10;;;;;;4962485;28;20042;-69
2022/06/05 09:00:08;;;;;;;1.30;1.10;;;22.90;74.40;;;;;;4959603;28;20034;-69
2022/06/05 09:02:52;;;;;;;1.08;0.95;;;23.00;73.90;;;;;;4977248;28;20649;-69
2022/06/05 09:05:24;;;;;;;2.70;0.98;;;23.00;73.30;;;;;;4961546;28;20507;-68
2022/06/05 09:07:54;;;;;;;1.83;1.10;;;23.00;73.90;;;;;;4963238;28;20042;-68
2022/06/05 09:10:35;;;;;;;2.40;0.90;;;23.10;73.30;;;;;;4962991;28;20039;-69
2022/06/05 09:13:20;;;;;;;2.80;0.80;;;23.10;73.70;;;;;;4971755;28;20053;-69
2022/06/05 09:16:04;;;;;;;1.10;1.00;;;23.10;73.60;;;;;;4961141;28;20533;-68
2022/06/05 09:18:37;;;;;;;0.93;0.93;;;23.20;73.70;;;;;;4963895;28;20445;-69
2022/06/05 09:21:09;;;;;;;1.20;1.08;;;23.20;72.80;;;;;;4962720;28;20790;-68
2022/06/05 09:23:41;;;;;;;0.90;0.90;;;23.30;72.10;;;;;;4980459;28;20513;-69
2022/06/05 09:26:34;;;;;;;1.00;0.90;;;23.40;71.30;;;;;;4964124;28;20033;-69
2022/06/05 09:28:59;;;;;;;1.10;1.00;;;23.40;71.40;;;;;;4963911;28;20411;-69
2022/06/05 09:32:03;;;;;;;1.08;0.90;;;23.40;71.30;;;;;;4961077;28;20039;-69
2022/06/05 09:34:36;;;;;;;1.92;1.08;;;23.40;71.10;;;;;;4964283;28;20073;-69
2022/06/05 09:37:11;;;;;;;1.55;0.82;;;23.50;70.70;;;;;;4964330;28;20042;-68
2022/06/05 09:39:55;;;;;;;0.82;0.75;;;23.50;70.00;;;;;;4964704;28;20089;-66
2022/06/05 09:42:27;;;;;;;1.00;0.90;;;23.50;70.50;;;;;;4962410;28;20041;-69
2022/06/05 09:45:11;;;;;;;1.15;0.80;;;23.50;70.60;;;;;;4958328;28;20094;-69
2022/06/05 09:48:01;;;;;;;1.00;0.88;;;23.60;70.60;;;;;;4959517;28;20066;-69
2022/06/05 09:50:28;;;;;;;1.20;1.10;;;23.70;69.90;;;;;;4964378;28;20051;-69
2022/06/05 09:52:54;;;;;;;1.88;1.13;;;23.80;70.80;;;;;;4961861;28;20035;-68
2022/06/05 09:55:23;;;;;;;1.05;0.80;;;23.80;69.50;;;;;;4961057;28;20113;-68
2022/06/05 09:58:25;;;;;;;1.33;0.70;;;23.80;69.50;;;;;;4963884;28;20119;-68
2022/06/05 10:01:19;;;;;;;0.95;0.80;;;23.90;68.30;;;;;;4963989;28;20046;-69
2022/06/05 10:03:47;;;;;;;1.20;0.90;;;24.10;68.20;;;;;;4964900;28;20039;-69
2022/06/05 10:06:24;;;;;;;0.80;0.70;;;24.10;68.30;;;;;;4965089;28;20039;-69
2022/06/05 10:09:02;;;;;;;1.77;1.00;;;24.20;68.40;;;;;;4965263;28;20039;-69
2022/06/05 10:11:59;;;;;;;2.00;0.75;;;24.40;67.60;;;;;;4962598;28;20045;-69
2022/06/05 10:14:37;;;;;;;1.00;0.90;;;24.50;66.80;;;;;;4969080;28;20118;-69
2022/06/05 10:17:11;;;;;;;0.93;0.93;;;24.60;66.90;;;;;;4970287;28;20462;-68
2022/06/05 10:19:52;;;;;;;1.38;0.80;;;24.60;66.40;;;;;;4970175;28;20034;-69
2022/06/05 10:22:46;;;;;;;1.25;0.77;;;24.70;65.20;;;;;;4967986;28;20058;-70
2022/06/05 10:25:53;;;;;;;1.00;0.90;;;24.70;65.70;;;;;;4951042;28;20049;-69
2022/06/05 10:28:23;;;;;;;2.47;0.95;;;24.80;65.70;;;;;;4966075;28;20418;-69
2022/06/05 10:31:03;;;;;;;0.85;0.70;;;24.90;65.50;;;;;;4968619;28;20118;-69
2022/06/05 10:33:49;;;;;;;0.98;0.73;;;25.00;65.60;;;;;;4965862;28;20070;-69
2022/06/05 10:36:25;;;;;;;1.10;1.00;;;25.00;65.90;;;;;;4968677;28;20039;-69
2022/06/05 10:39:17;;;;;;;1.00;0.90;;;25.10;62.70;;;;;;4969192;28;20509;-69
2022/06/05 10:42:22;;;;;;;2.28;0.88;;;25.20;65.30;;;;;;4951506;28;20375;-69
2022/06/05 10:45:15;;;;;;;0.93;0.90;;;25.20;63.30;;;;;;4963817;28;20509;-69
2022/06/05 10:48:10;;;;;;;1.25;0.98;;;25.30;62.50;;;;;;4966824;28;20034;-69
2022/06/05 10:50:48;;;;;;;1.05;1.00;;;25.30;63.20;;;;;;4966970;28;20089;-69
2022/06/05 10:53:26;;;;;;;1.15;1.05;;;25.40;63.00;;;;;;4967579;28;20042;-69
2022/06/05 10:56:00;;;;;;;2.90;1.10;;;25.40;62.20;;;;;;4967123;28;20141;-69
2022/06/05 10:58:32;;;;;;;;;;;25.40;62.00;;;;;;4966067;28;20039;-70
2022/06/05 11:01:13;;;;;;;0.93;0.93;;;25.30;62.20;;;;;;4967125;28;19918;-70
2022/06/05 11:03:42;;;;;;;1.10;1.00;;;25.30;62.10;;;;;;4967099;28;20037;-70
2022/06/05 11:06:21;;;;;;;1.45;1.10;;;25.20;63.10;;;;;;4966939;28;20544;-69
2022/06/05 11:09:08;;;;;;;1.88;1.30;;;25.10;61.90;;;;;;4967558;28;20081;-69
2022/06/05 11:14:54;;;;;;;2.03;1.83;;;24.90;63.20;;;;;;4965037;28;20576;-69
2022/06/05 11:17:46;;;;;;;2.22;1.10;;;24.80;63.00;;;;;;4962839;28;20139;-69
2022/06/05 11:20:24;;;;;;;1.10;1.00;;;24.70;62.40;;;;;;4964470;28;20122;-68
2022/06/05 11:22:54;;;;;;;1.58;1.33;;;24.50;63.80;;;;;;4963796;28;20509;-69
2022/06/05 11:25:22;;;;;;;1.17;0.90;;;24.40;63.50;;;;;;4964144;28;20041;-69
2022/06/05 11:28:13;;;;;;;4.57;1.42;;;24.20;63.60;;;;;;4957834;28;20039;-69
2022/06/05 11:30:54;;;;;;;1.40;1.30;;;24.10;63.80;;;;;;4961070;28;20027;-70
2022/06/05 11:33:23;;;;;;;1.50;1.40;;;24.00;65.00;;;;;;4965340;28;20126;-69
2022/06/05 11:36:22;;;;;;;1.55;1.45;;;23.80;65.90;;;;;;4962317;28;20049;-69
2022/06/05 11:39:04;;;;;;;2.63;1.80;;;23.70;66.90;;;;;;4963095;28;20498;-69
2022/06/05 11:41:58;;;;;;;1.35;1.25;;;23.50;68.10;;;;;;4964521;28;20409;-68
2022/06/05 11:44:46;;;;;;;1.42;0.90;;;23.30;69.00;;;;;;4961253;28;20043;-68
2022/06/05 11:47:37;;;;;;;1.35;0.98;;;23.00;69.70;;;;;;4962833;28;20031;-66
2022/06/05 11:50:32;;;;;;;2.55;1.00;;;22.80;70.80;;;;;;4960976;28;20764;-68
2022/06/05 11:53:18;;;;;;;1.50;1.15;;;22.60;72.60;;;;;;4960878;28;20097;-66
2022/06/05 11:56:12;;;;;;;1.95;1.30;;;22.50;71.80;;;;;;4964884;28;20041;-67
2022/06/05 11:58:44;;;;;;;1.77;1.13;;;22.40;72.80;;;;;;4963766;28;20117;-67
2022/06/05 12:01:16;;;;;;;1.50;1.40;;;22.40;73.80;;;;;;4963275;28;20038;-68
2022/06/05 12:03:46;;;;;;;2.28;1.20;;;22.40;73.30;;;;;;4963556;28;20065;-68
2022/06/05 12:06:27;;;;;;;1.60;1.50;;;22.40;73.00;;;;;;4963476;28;20070;-67
2022/06/05 12:08:57;;;;;;;1.77;1.63;;;22.40;74.70;;;;;;4959137;28;20042;-68
2022/06/05 12:11:27;;;;;;;2.10;1.60;;;22.40;74.60;;;;;;4957664;28;20070;-67
2022/06/05 12:14:14;;;;;;;3.40;1.80;;;22.30;73.80;;;;;;4979699;28;20035;-68
2022/06/05 12:16:50;;;;;;;2.70;1.40;;;22.20;73.90;;;;;;4960111;28;20039;-67
2022/06/05 12:19:36;;;;;;;1.77;1.30;;;22.20;74.00;;;;;;4965186;28;20030;-67
2022/06/05 12:22:25;;;;;;;3.53;1.48;;;22.10;75.60;;;;;;4958811;28;20453;-67
2022/06/05 12:24:55;;;;;;;1.48;1.38;;;22.10;75.30;;;;;;4965425;28;20122;-68
2022/06/05 12:27:21;;;;;;;2.95;1.40;;;22.10;76.10;;;;;;4967156;28;20027;-68
2022/06/05 12:29:57;;;;;;;2.03;1.48;;;22.10;76.00;;;;;;4964423;28;20378;-68
2022/06/05 12:32:34;;;;;;;1.38;1.27;;;22.10;75.80;;;;;;4964943;28;20406;-67
2022/06/05 12:35:06;;;;;;;1.52;1.42;;;22.10;74.90;;;;;;4964318;28;20540;-68
2022/06/05 12:37:44;;;;;;;2.72;1.50;;;22.00;75.60;;;;;;4966441;28;20069;-68
2022/06/05 12:40:22;;;;;;;2.15;1.63;;;22.00;76.00;;;;;;4964319;28;20038;-67
2022/06/05 12:42:51;;;;;;;2.20;1.30;;;21.90;76.00;;;;;;4964456;28;20031;-68
2022/06/05 12:45:27;;;;;;;1.48;1.38;;;21.90;76.10;;;;;;4964711;28;20041;-68
2022/06/05 12:48:04;;;;;;;2.33;1.75;;;21.80;77.20;;;;;;4964620;28;20038;-68
2022/06/05 12:50:38;;;;;;;3.08;1.40;;;21.80;77.50;;;;;;4963450;28;20077;-68
2022/06/05 12:53:19;;;;;;;2.15;1.48;;;21.70;77.20;;;;;;4963979;28;20038;-68
2022/06/05 12:55:49;;;;;;;1.80;1.50;;;21.70;78.20;;;;;;4961577;28;20035;-68
2022/06/05 12:58:28;;;;;;;1.58;1.33;;;21.60;78.10;;;;;;4960020;28;20035;-67
2022/06/05 13:01:42;;;;;;;2.13;1.67;;;21.70;78.10;;;;;;4963130;28;20038;-68
2022/06/05 13:04:12;;;;;;;1.95;1.65;;;21.70;79.20;;;;;;4959112;28;20109;-68
2022/06/05 13:06:58;;;;;;;1.75;1.63;;;21.70;78.00;;;;;;4960533;28;20643;-67
2022/06/05 13:09:29;;;;;;;;;;;21.80;78.30;;;;;;4964227;28;20619;-67
2022/06/05 13:12:26;;;;;;;2.13;1.20;;;21.80;78.00;;;;;;4957680;28;19926;-67
2022/06/05 13:15:13;;;;;;;2.78;1.10;;;21.80;78.20;;;;;;4964738;28;20094;-67
2022/06/05 13:18:04;;;;;;;1.30;1.20;;;21.80;77.90;;;;;;4965390;28;20038;-67
2022/06/05 13:20:58;;;;;;;1.65;1.00;;;21.80;78.50;;;;;;4962546;28;20030;-67
2022/06/05 13:23:34;;;;;;;1.38;0.82;;;21.80;77.70;;;;;;4957880;28;20035;-68
2022/06/05 13:26:16;;;;;;;1.13;0.90;;;21.80;77.20;;;;;;4962162;28;20043;-68